createdAt,value
2023-08-30T00:01:35.544Z,15.10
2023-08-30T00:04:02.833Z,15.10
2023-08-30T00:06:30.119Z,15.20
2023-08-30T00:08:59.645Z,15.20
2023-08-30T00:11:26.821Z,15.10
2023-08-30T00:13:54.326Z,15.20
2023-08-30T00:16:21.557Z,15.10
2023-08-30T00:18:48.894Z,15.10
2023-08-30T00:21:17.833Z,15.10
2023-08-30T00:23:45.136Z,15.10
2023-08-30T00:26:12.332Z,15.10
2023-08-30T00:28:39.730Z,15.00
2023-08-30T00:31:07.035Z,15.00
2023-08-30T00:33:34.226Z,14.90
2023-08-30T00:36:02.299Z,15.00
2023-08-30T00:38:29.679Z,15.00
2023-08-30T00:40:57.077Z,15.00
2023-08-30T00:43:24.321Z,15.00
2023-08-30T00:45:52.427Z,14.90
2023-08-30T00:48:22.384Z,15.00
2023-08-30T00:50:49.720Z,15.00
2023-08-30T00:53:17.403Z,15.00
2023-08-30T00:55:45.729Z,15.00
2023-08-30T00:58:13.314Z,15.00
2023-08-30T01:00:41.264Z,15.10
2023-08-30T01:03:11.126Z,15.10
2023-08-30T01:05:39.246Z,15.10
2023-08-30T01:08:07.024Z,15.10
2023-08-30T01:11:12.185Z,15.00
2023-08-30T01:13:51.320Z,15.10
2023-08-30T01:16:21.468Z,15.10
2023-08-30T01:18:50.151Z,15.10
2023-08-30T01:21:42.684Z,15.10
2023-08-30T01:24:14.042Z,15.00
2023-08-30T01:26:45.962Z,15.10
2023-08-30T01:29:14.141Z,15.00
2023-08-30T01:31:43.745Z,15.00
2023-08-30T01:34:11.046Z,15.00
2023-08-30T01:36:38.360Z,15.00
2023-08-30T01:39:06.145Z,15.00
2023-08-30T01:41:34.642Z,15.00
2023-08-30T01:44:05.098Z,15.00
2023-08-30T01:46:36.008Z,15.00
2023-08-30T01:49:05.572Z,15.00
2023-08-30T01:51:34.477Z,15.00
2023-08-30T01:54:05.383Z,15.10
2023-08-30T01:56:32.682Z,15.10
2023-08-30T01:58:59.896Z,15.00
2023-08-30T02:01:26.961Z,15.00
2023-08-30T02:03:54.032Z,15.10
2023-08-30T02:06:31.798Z,15.10
2023-08-30T02:09:12.950Z,15.00
2023-08-30T02:11:45.536Z,15.00
2023-08-30T02:14:18.624Z,15.00
2023-08-30T02:16:49.769Z,15.00
2023-08-30T02:19:22.910Z,15.00
2023-08-30T02:21:51.104Z,15.00
2023-08-30T02:24:19.628Z,14.90
2023-08-30T02:26:46.718Z,14.90
2023-08-30T02:29:16.421Z,14.90
2023-08-30T02:31:43.937Z,14.80
2023-08-30T02:34:11.353Z,14.80
2023-08-30T02:36:38.397Z,14.80
2023-08-30T02:39:06.156Z,14.80
2023-08-30T02:41:33.188Z,14.80
2023-08-30T02:44:00.263Z,14.80
2023-08-30T02:46:27.253Z,14.80
2023-08-30T02:48:54.296Z,14.80
2023-08-30T02:51:21.315Z,14.80
2023-08-30T02:53:48.626Z,14.80
2023-08-30T02:56:15.899Z,14.90
2023-08-30T02:58:43.326Z,14.90
2023-08-30T03:01:10.622Z,14.90
2023-08-30T03:03:37.841Z,14.90
2023-08-30T03:06:05.203Z,14.90
2023-08-30T03:08:33.780Z,14.90
2023-08-30T03:11:14.216Z,14.90
2023-08-30T03:13:49.587Z,14.90
2023-08-30T03:16:18.810Z,14.90
2023-08-30T03:18:46.165Z,14.80
2023-08-30T03:21:13.617Z,14.80
2023-08-30T03:23:41.614Z,14.70
2023-08-30T03:26:15.340Z,14.80
2023-08-30T03:28:43.499Z,14.80
2023-08-30T03:31:17.649Z,14.80
2023-08-30T03:33:47.319Z,14.80
2023-08-30T03:36:19.918Z,14.80
2023-08-30T03:38:47.680Z,14.80
2023-08-30T03:41:16.080Z,14.80
2023-08-30T03:43:45.501Z,14.80
2023-08-30T03:46:13.492Z,14.80
2023-08-30T03:48:51.338Z,14.80
2023-08-30T03:51:18.644Z,14.80
2023-08-30T03:53:46.377Z,14.70
2023-08-30T03:56:17.059Z,14.70
2023-08-30T03:58:46.414Z,14.70
2023-08-30T04:01:13.505Z,14.70
2023-08-30T04:03:40.857Z,14.70
2023-08-30T04:06:08.736Z,14.70
2023-08-30T04:08:36.051Z,14.70
2023-08-30T04:11:05.203Z,14.60
2023-08-30T04:13:33.518Z,14.60
2023-08-30T04:16:05.280Z,14.60
2023-08-30T04:18:33.975Z,14.60
2023-08-30T04:21:07.336Z,14.60
2023-08-30T04:23:37.242Z,14.60
2023-08-30T04:26:05.707Z,14.60
2023-08-30T04:28:32.961Z,14.60
2023-08-30T04:31:00.897Z,14.60
2023-08-30T04:33:28.369Z,14.50
2023-08-30T04:35:56.529Z,14.50
2023-08-30T04:38:23.743Z,14.50
2023-08-30T04:40:50.865Z,14.40
2023-08-30T04:43:18.162Z,14.40
2023-08-30T04:45:49.277Z,14.40
2023-08-30T04:48:19.880Z,14.40
2023-08-30T04:50:47.031Z,14.40
2023-08-30T04:53:14.137Z,14.40
2023-08-30T04:55:41.366Z,14.50
2023-08-30T04:58:10.120Z,14.50
2023-08-30T05:00:37.426Z,14.40
2023-08-30T05:03:04.789Z,14.40
2023-08-30T05:05:32.273Z,14.40
2023-08-30T05:07:59.913Z,14.40
2023-08-30T05:10:27.788Z,14.40
2023-08-30T05:12:55.399Z,14.40
2023-08-30T05:15:22.692Z,14.50
2023-08-30T05:17:49.810Z,14.50
2023-08-30T05:20:17.095Z,14.50
2023-08-30T05:22:44.314Z,14.50
2023-08-30T05:25:11.583Z,14.50
2023-08-30T05:27:38.622Z,14.60
2023-08-30T05:30:06.432Z,14.50
2023-08-30T05:32:34.671Z,14.50
2023-08-30T05:35:08.246Z,14.50
2023-08-30T05:37:58.313Z,14.50
2023-08-30T05:40:44.365Z,14.60
2023-08-30T05:43:12.195Z,14.60
2023-08-30T05:45:39.363Z,14.60
2023-08-30T05:48:07.603Z,14.60
2023-08-30T05:50:35.032Z,14.60
2023-08-30T05:53:04.234Z,14.60
2023-08-30T05:55:31.365Z,14.60
2023-08-30T05:57:59.586Z,14.60
2023-08-30T06:00:27.105Z,14.60
2023-08-30T06:02:54.206Z,14.60
2023-08-30T06:05:21.576Z,14.70
2023-08-30T06:07:51.653Z,14.70
2023-08-30T06:10:19.326Z,14.80
2023-08-30T06:12:46.504Z,14.80
2023-08-30T06:15:13.899Z,14.80
2023-08-30T06:17:41.109Z,14.90
2023-08-30T06:20:08.806Z,14.90
2023-08-30T06:22:35.952Z,14.90
2023-08-30T06:25:05.523Z,15.00
2023-08-30T06:27:32.601Z,15.00
2023-08-30T06:29:59.942Z,15.00
2023-08-30T06:32:26.946Z,15.10
2023-08-30T06:34:54.048Z,15.10
2023-08-30T06:37:21.221Z,15.20
2023-08-30T06:39:48.488Z,15.20
2023-08-30T06:42:15.622Z,15.30
2023-08-30T06:44:43.010Z,15.30
2023-08-30T06:47:10.193Z,15.40
2023-08-30T06:49:37.495Z,15.40
2023-08-30T06:52:06.090Z,15.50
2023-08-30T06:54:37.732Z,15.60
2023-08-30T06:57:07.230Z,15.70
2023-08-30T06:59:34.558Z,15.70
2023-08-30T07:02:01.906Z,15.80
2023-08-30T07:04:29.452Z,15.80
2023-08-30T07:06:56.900Z,15.80
2023-08-30T07:09:30.958Z,15.90
2023-08-30T07:11:57.972Z,16.00
2023-08-30T07:14:25.237Z,16.10
2023-08-30T07:16:52.286Z,16.10
2023-08-30T07:19:19.520Z,16.10
2023-08-30T07:21:46.751Z,16.10
2023-08-30T07:24:13.989Z,16.20
2023-08-30T07:26:42.177Z,16.20
2023-08-30T07:29:11.155Z,16.30
2023-08-30T07:31:38.302Z,16.30
2023-08-30T07:34:05.601Z,16.30
2023-08-30T07:36:46.333Z,16.30
2023-08-30T07:39:14.309Z,16.40
2023-08-30T07:41:41.686Z,16.40
2023-08-30T07:44:08.868Z,16.40
2023-08-30T07:46:36.173Z,16.40
2023-08-30T07:49:03.887Z,16.50
2023-08-30T07:51:32.320Z,16.50
2023-08-30T07:53:59.414Z,16.60
2023-08-30T07:56:27.140Z,16.60
2023-08-30T07:58:55.698Z,16.70
2023-08-30T08:01:22.849Z,16.70
2023-08-30T08:04:04.355Z,16.70
2023-08-30T08:06:35.078Z,16.80
2023-08-30T08:09:02.928Z,16.80
2023-08-30T08:11:30.448Z,16.80
2023-08-30T08:13:57.896Z,16.90
2023-08-30T08:16:25.077Z,16.90
2023-08-30T08:18:53.206Z,17.00
2023-08-30T08:21:20.343Z,17.00
2023-08-30T08:23:50.770Z,17.10
2023-08-30T08:26:18.297Z,17.10
2023-08-30T08:28:45.665Z,17.20
2023-08-30T08:31:12.921Z,17.20
2023-08-30T08:33:40.234Z,17.30
2023-08-30T08:36:07.434Z,17.30
2023-08-30T08:38:35.431Z,17.40
2023-08-30T08:41:15.422Z,17.50
2023-08-30T08:43:43.903Z,17.60
2023-08-30T08:46:12.672Z,17.60
2023-08-30T08:48:44.305Z,17.70
2023-08-30T08:51:12.251Z,17.80
2023-08-30T08:53:39.816Z,17.90
2023-08-30T08:56:09.312Z,17.90
2023-08-30T08:58:39.022Z,18.00
2023-08-30T09:01:07.799Z,18.10
2023-08-30T09:03:37.608Z,18.10
2023-08-30T09:06:05.375Z,18.20
2023-08-30T09:08:32.487Z,18.40
2023-08-30T09:11:00.933Z,18.60
2023-08-30T09:13:28.107Z,18.60
2023-08-30T09:15:55.025Z,18.50
2023-08-30T09:18:21.950Z,18.50
2023-08-30T09:20:48.872Z,18.60
2023-08-30T09:23:23.040Z,18.70
2023-08-30T09:25:56.051Z,18.60
2023-08-30T09:28:23.299Z,18.80
2023-08-30T09:30:54.064Z,18.90
2023-08-30T09:33:25.359Z,18.90
2023-08-30T09:35:54.162Z,18.90
2023-08-30T09:38:24.742Z,18.90
2023-08-30T09:40:52.065Z,18.80
2023-08-30T09:43:25.553Z,18.70
2023-08-30T09:45:52.529Z,18.70
2023-08-30T09:48:23.426Z,18.70
2023-08-30T09:50:55.749Z,18.80
2023-08-30T09:53:27.878Z,18.90
2023-08-30T09:55:55.449Z,18.80
2023-08-30T09:58:23.834Z,18.90
2023-08-30T10:00:51.307Z,19.00
2023-08-30T10:06:07.439Z,19.00
2023-08-30T10:08:37.727Z,18.80
2023-08-30T10:11:06.503Z,18.80
2023-08-30T10:13:38.753Z,18.90
2023-08-30T10:16:06.553Z,19.00
2023-08-30T10:18:35.873Z,19.10
2023-08-30T10:21:05.825Z,19.20
2023-08-30T10:23:33.383Z,19.30
2023-08-30T10:26:02.486Z,19.30
2023-08-30T10:28:29.968Z,19.20
2023-08-30T10:30:57.156Z,19.20
2023-08-30T10:33:29.158Z,19.20
2023-08-30T10:36:06.160Z,19.20
2023-08-30T10:38:34.594Z,19.20
2023-08-30T10:41:09.030Z,19.20
2023-08-30T10:43:38.046Z,19.10
2023-08-30T10:46:12.340Z,19.10
2023-08-30T10:48:40.874Z,19.20
2023-08-30T10:51:22.579Z,19.20
2023-08-30T10:53:59.633Z,19.20
2023-08-30T10:56:32.055Z,19.30
2023-08-30T10:58:59.368Z,19.20
2023-08-30T11:01:26.409Z,19.20
2023-08-30T11:04:09.550Z,19.20
2023-08-30T11:06:43.831Z,19.30
2023-08-30T11:09:12.075Z,19.40
2023-08-30T11:11:39.486Z,19.40
2023-08-30T11:14:09.338Z,19.50
2023-08-30T11:16:37.854Z,19.60
2023-08-30T11:19:05.868Z,19.70
2023-08-30T11:21:34.866Z,19.80
2023-08-30T11:24:01.814Z,19.90
2023-08-30T11:26:28.749Z,19.90
2023-08-30T11:28:55.683Z,20.00
2023-08-30T11:31:23.687Z,20.00
2023-08-30T11:33:56.279Z,19.80
2023-08-30T11:36:25.302Z,20.00
2023-08-30T11:38:52.518Z,20.20
2023-08-30T11:41:23.549Z,20.20
2023-08-30T11:43:51.500Z,20.20
2023-08-30T11:46:22.529Z,20.30
2023-08-30T11:48:51.436Z,20.30
2023-08-30T11:51:19.690Z,20.50
2023-08-30T11:53:47.570Z,20.60
2023-08-30T11:56:15.146Z,20.60
2023-08-30T11:58:42.069Z,20.70
2023-08-30T12:01:09.436Z,20.80
2023-08-30T12:03:37.413Z,20.90
2023-08-30T12:06:12.964Z,20.70
2023-08-30T12:08:40.316Z,20.70
2023-08-30T12:11:07.545Z,20.60
2023-08-30T12:13:35.251Z,20.50
2023-08-30T12:16:03.548Z,20.40
2023-08-30T12:18:34.076Z,20.50
2023-08-30T12:21:05.291Z,20.60
2023-08-30T12:23:34.125Z,20.70
2023-08-30T12:26:05.162Z,20.70
2023-08-30T12:28:36.302Z,20.70
2023-08-30T12:31:06.937Z,20.70
2023-08-30T12:33:37.466Z,20.70
2023-08-30T12:36:04.991Z,20.70
2023-08-30T12:38:32.009Z,20.70
2023-08-30T12:40:59.173Z,20.70
2023-08-30T12:43:26.146Z,20.60
2023-08-30T12:45:53.131Z,20.40
2023-08-30T12:48:20.071Z,19.90
2023-08-30T12:50:48.932Z,19.60
2023-08-30T12:53:17.814Z,19.40
2023-08-30T12:55:45.227Z,19.30
2023-08-30T12:58:12.956Z,19.20
2023-08-30T13:00:40.096Z,19.30
2023-08-30T13:03:07.142Z,19.40
2023-08-30T13:05:34.624Z,19.40
2023-08-30T13:08:02.168Z,19.20
2023-08-30T13:10:29.583Z,19.10
2023-08-30T13:12:56.855Z,18.80
2023-08-30T13:15:23.860Z,18.70
2023-08-30T13:17:50.916Z,18.50
2023-08-30T13:20:18.219Z,18.40
2023-08-30T13:22:45.583Z,18.40
2023-08-30T13:25:13.028Z,18.20
2023-08-30T13:27:40.472Z,18.10
2023-08-30T13:30:08.915Z,18.10
2023-08-30T13:32:36.829Z,18.20
2023-08-30T13:35:04.948Z,18.20
2023-08-30T13:37:32.467Z,18.20
2023-08-30T13:39:59.939Z,18.00
2023-08-30T13:42:27.937Z,18.10
2023-08-30T13:44:56.063Z,18.00
2023-08-30T13:47:23.586Z,17.90
2023-08-30T13:49:51.756Z,17.80
2023-08-30T13:52:19.859Z,17.70
2023-08-30T13:54:47.386Z,17.60
2023-08-30T13:57:15.443Z,17.60
2023-08-30T13:59:43.732Z,17.50
2023-08-30T14:02:11.557Z,17.50
2023-08-30T14:04:39.494Z,17.60
2023-08-30T14:07:07.364Z,17.60
2023-08-30T14:09:35.080Z,17.70
2023-08-30T14:12:05.601Z,17.60
2023-08-30T14:14:34.790Z,17.50
2023-08-30T14:17:02.145Z,17.40
2023-08-30T14:19:29.226Z,17.50
2023-08-30T14:21:59.170Z,17.50
2023-08-30T14:24:26.761Z,17.60
2023-08-30T14:26:54.913Z,17.70
2023-08-30T14:29:23.867Z,17.60
2023-08-30T14:31:52.121Z,17.50
2023-08-30T14:34:21.760Z,17.50
2023-08-30T14:36:50.029Z,17.60
2023-08-30T14:39:18.201Z,17.60
2023-08-30T14:41:46.616Z,17.50
2023-08-30T14:44:15.128Z,17.50
2023-08-30T14:46:46.311Z,17.40
2023-08-30T14:49:15.636Z,17.40
2023-08-30T14:51:44.198Z,17.50
2023-08-30T14:54:12.800Z,17.50
2023-08-30T14:56:41.377Z,17.50
2023-08-30T14:59:09.966Z,17.60
2023-08-30T15:01:39.293Z,17.50
2023-08-30T15:04:08.413Z,17.40
2023-08-30T15:06:38.831Z,17.40
2023-08-30T15:09:07.796Z,17.30
2023-08-30T15:11:36.510Z,17.30
2023-08-30T15:14:05.555Z,17.30
2023-08-30T15:16:34.050Z,17.30
2023-08-30T15:19:03.314Z,17.20
2023-08-30T15:21:33.309Z,17.20
2023-08-30T15:24:01.904Z,17.10
2023-08-30T15:26:30.596Z,17.10
2023-08-30T15:28:59.206Z,17.00
2023-08-30T15:31:28.672Z,17.10
2023-08-30T15:33:57.797Z,17.00
2023-08-30T15:36:26.953Z,17.00
2023-08-30T15:38:55.669Z,17.00
2023-08-30T15:41:24.418Z,16.90
2023-08-30T15:43:52.945Z,16.90
2023-08-30T15:46:21.842Z,16.80
2023-08-30T15:48:50.534Z,16.90
2023-08-30T15:51:24.369Z,17.00
2023-08-30T15:53:54.263Z,17.10
2023-08-30T15:56:23.576Z,17.10
2023-08-30T15:58:52.224Z,17.10
2023-08-30T16:01:22.602Z,17.20
2023-08-30T16:03:51.597Z,17.10
2023-08-30T16:06:25.131Z,17.00
2023-08-30T16:08:54.656Z,17.00
2023-08-30T16:11:25.515Z,16.90
2023-08-30T16:13:58.135Z,16.90
2023-08-30T16:16:30.189Z,16.90
2023-08-30T16:19:00.844Z,17.00
2023-08-30T16:21:32.864Z,16.90
2023-08-30T16:24:03.817Z,16.90
2023-08-30T16:26:34.913Z,16.80
2023-08-30T16:29:07.354Z,16.90
2023-08-30T16:31:37.218Z,16.90
2023-08-30T16:34:10.369Z,17.00
2023-08-30T16:36:42.250Z,17.00
2023-08-30T16:39:11.979Z,17.00
2023-08-30T16:41:41.258Z,17.00
2023-08-30T16:44:10.484Z,16.90
2023-08-30T16:46:43.089Z,16.90
2023-08-30T16:49:13.095Z,16.90
2023-08-30T16:51:45.220Z,16.90
2023-08-30T16:54:16.352Z,16.90
2023-08-30T16:56:47.900Z,16.90
2023-08-30T16:59:16.833Z,16.90
2023-08-30T17:01:50.169Z,16.90
2023-08-30T17:04:23.940Z,17.00
2023-08-30T17:06:53.280Z,16.90
2023-08-30T17:09:25.596Z,16.90
2023-08-30T17:11:55.052Z,16.90
2023-08-30T17:14:29.045Z,16.90
2023-08-30T17:17:01.028Z,16.80
2023-08-30T17:19:31.973Z,16.90
2023-08-30T17:22:04.800Z,16.90
2023-08-30T17:24:45.967Z,16.80
2023-08-30T17:27:18.388Z,16.80
2023-08-30T17:29:52.103Z,16.70
2023-08-30T17:32:24.763Z,16.80
2023-08-30T17:35:01.352Z,16.80
2023-08-30T17:37:33.873Z,16.70
2023-08-30T17:40:03.282Z,16.70
2023-08-30T17:42:38.500Z,16.70
2023-08-30T17:45:24.871Z,16.70
2023-08-30T17:47:56.643Z,16.70
2023-08-30T17:50:29.069Z,16.70
2023-08-30T17:52:59.696Z,16.70
2023-08-30T17:55:37.957Z,16.70
2023-08-30T17:58:14.298Z,16.70
2023-08-30T18:00:59.458Z,16.70
2023-08-30T18:03:36.450Z,16.70
2023-08-30T18:06:17.811Z,16.70
2023-08-30T18:08:48.772Z,16.70
2023-08-30T18:11:31.248Z,16.70
2023-08-30T18:14:03.463Z,16.70
2023-08-30T18:16:34.171Z,16.70
2023-08-30T18:19:05.937Z,16.70
2023-08-30T18:21:37.638Z,16.70
2023-08-30T18:24:26.354Z,16.70
2023-08-30T18:27:07.606Z,16.70
2023-08-30T18:29:43.165Z,16.70
2023-08-30T18:32:18.024Z,16.70
2023-08-30T18:34:49.896Z,16.70
2023-08-30T18:37:24.366Z,16.70
2023-08-30T18:40:01.334Z,16.70
2023-08-30T18:42:37.774Z,16.70
2023-08-30T18:45:13.579Z,16.70
2023-08-30T18:47:49.523Z,16.70
2023-08-30T18:50:24.208Z,16.70
2023-08-30T18:52:56.344Z,16.70
2023-08-30T18:55:30.830Z,16.70
2023-08-30T18:58:04.715Z,16.60
2023-08-30T19:00:36.486Z,16.60
2023-08-30T19:03:07.232Z,16.60
2023-08-30T19:05:45.489Z,16.60
2023-08-30T19:08:16.882Z,16.50
2023-08-30T19:10:53.143Z,16.50
2023-08-30T19:13:27.090Z,16.50
2023-08-30T19:16:00.914Z,16.50
2023-08-30T19:18:30.850Z,16.50
2023-08-30T19:21:03.332Z,16.50
2023-08-30T19:23:36.611Z,16.50
2023-08-30T19:26:09.806Z,16.40
2023-08-30T19:28:41.534Z,16.50
2023-08-30T19:31:12.223Z,16.50
2023-08-30T19:33:43.440Z,16.40
2023-08-30T19:36:18.878Z,16.40
2023-08-30T19:38:48.172Z,16.40
2023-08-30T19:41:21.630Z,16.40
2023-08-30T19:43:56.641Z,16.40
2023-08-30T19:46:30.128Z,16.40
2023-08-30T19:48:59.911Z,16.40
2023-08-30T19:51:29.243Z,16.40
2023-08-30T19:54:00.055Z,16.30
2023-08-30T19:56:29.422Z,16.40
2023-08-30T19:58:58.587Z,16.40
2023-08-30T20:01:32.114Z,16.40
2023-08-30T20:04:04.325Z,16.40
2023-08-30T20:06:37.358Z,16.30
2023-08-30T20:09:08.562Z,16.30
2023-08-30T20:11:38.843Z,16.30
2023-08-30T20:14:08.212Z,16.30
2023-08-30T20:16:37.389Z,16.30
2023-08-30T20:19:08.558Z,16.30
2023-08-30T20:21:38.478Z,16.30
2023-08-30T20:24:08.101Z,16.30
2023-08-30T20:26:40.052Z,16.30
2023-08-30T20:29:09.374Z,16.30
2023-08-30T20:31:41.536Z,16.30
2023-08-30T20:34:12.282Z,16.30
2023-08-30T20:36:41.460Z,16.30
2023-08-30T20:39:11.070Z,16.30
2023-08-30T20:41:41.347Z,16.30
2023-08-30T20:44:11.971Z,16.30
2023-08-30T20:46:41.889Z,16.30
2023-08-30T20:49:10.974Z,16.30
2023-08-30T20:51:40.184Z,16.30
2023-08-30T20:54:09.036Z,16.30
2023-08-30T20:56:37.846Z,16.30
2023-08-30T20:59:06.715Z,16.30
2023-08-30T21:01:35.009Z,16.30
2023-08-30T21:04:02.255Z,16.30
2023-08-30T21:06:29.370Z,16.30
2023-08-30T21:08:57.701Z,16.30
2023-08-30T21:11:25.060Z,16.20
2023-08-30T21:13:52.209Z,16.20
2023-08-30T21:16:19.162Z,16.20
2023-08-30T21:18:46.227Z,16.20
2023-08-30T21:21:13.096Z,16.20
2023-08-30T21:23:40.056Z,16.20
2023-08-30T21:26:06.891Z,16.20
2023-08-30T21:28:34.783Z,16.20
2023-08-30T21:31:01.811Z,16.20
2023-08-30T21:33:28.800Z,16.20
2023-08-30T21:35:55.754Z,16.20
2023-08-30T21:38:22.759Z,16.20
2023-08-30T21:40:49.781Z,16.20
2023-08-30T21:43:16.959Z,16.20
2023-08-30T21:45:45.020Z,16.20
2023-08-30T21:48:12.208Z,16.20
2023-08-30T21:50:40.754Z,16.10
2023-08-30T21:53:07.975Z,16.10
2023-08-30T21:55:34.906Z,16.10
2023-08-30T21:58:02.017Z,16.10
2023-08-30T22:00:29.953Z,16.10
2023-08-30T22:02:57.106Z,16.00
2023-08-30T22:05:25.369Z,16.00
2023-08-30T22:07:52.768Z,16.00
2023-08-30T22:10:20.498Z,16.00
2023-08-30T22:12:49.333Z,16.00
2023-08-30T22:15:16.803Z,16.00
2023-08-30T22:17:46.383Z,16.00
2023-08-30T22:20:16.892Z,16.00
2023-08-30T22:22:44.251Z,16.00
2023-08-30T22:25:11.699Z,16.00
2023-08-30T22:27:41.087Z,16.00
2023-08-30T22:30:10.140Z,16.00
2023-08-30T22:32:37.613Z,16.00
2023-08-30T22:35:06.208Z,15.90
2023-08-30T22:37:33.897Z,15.90
2023-08-30T22:40:02.342Z,15.90
2023-08-30T22:42:29.298Z,15.80
2023-08-30T22:44:56.787Z,15.80
2023-08-30T22:47:24.006Z,15.80
2023-08-30T22:49:50.892Z,15.80
2023-08-30T22:52:18.173Z,15.80
2023-08-30T22:54:45.025Z,15.80
2023-08-30T22:57:11.978Z,15.80
2023-08-30T22:59:38.891Z,15.80
2023-08-30T23:02:05.765Z,15.80
2023-08-30T23:04:32.651Z,15.80
2023-08-30T23:06:59.628Z,15.70
2023-08-30T23:09:26.821Z,15.70
2023-08-30T23:11:53.900Z,15.70
2023-08-30T23:14:20.784Z,15.60
2023-08-30T23:16:48.706Z,15.50
2023-08-30T23:19:15.645Z,15.50
2023-08-30T23:21:42.579Z,15.50
2023-08-30T23:24:09.549Z,15.40
2023-08-30T23:26:38.509Z,15.40
2023-08-30T23:29:06.439Z,15.40
2023-08-30T23:31:33.707Z,15.40
2023-08-30T23:34:00.906Z,15.40
2023-08-30T23:36:30.326Z,15.40
2023-08-30T23:38:57.374Z,15.40
2023-08-30T23:41:24.485Z,15.40
2023-08-30T23:43:51.346Z,15.40
2023-08-30T23:46:18.318Z,15.20
2023-08-30T23:48:45.263Z,15.20
2023-08-30T23:51:12.216Z,15.10
2023-08-30T23:53:39.094Z,15.10
2023-08-30T23:56:06.086Z,15.10
2023-08-30T23:58:32.934Z,15.10
